KLM621 LSGG-EHAM
Flight info
| Callsign | KLM621 |
|---|---|
| Flight time | N/A |
| Altitude | 38000 |
| Route | DIPIR V25 ARBOS DCT PENDU DCT EPL DCT ROUSY DCT BUB Y28 HELEN |
| Aircraft | A20N/M-SDE2E3FGHIRWXY/LB1 |
Departure
| Time | 2026-02-21 04:12 |
|---|---|
| Airport | Geneva International Airport (LSGG) |
Arrival
| Time | N/A |
|---|---|
| Airport | Amsterdam Airport Schiphol (EHAM) |
| Time | Latitude | Longitude | Altitude | Speed | Heading |
|---|---|---|---|---|---|
| 2026-02-21 03:35 | 46.23059 | 6.10612 | 1415 ft | 0 kts | 133° |
| 2026-02-21 03:58 | 46.23061 | 6.10607 | 1404 ft | 2 kts | 133° |
| 2026-02-21 03:58 | 46.23073 | 6.10587 | 1390 ft | 3 kts | 121° |
| 2026-02-21 03:58 | 46.23082 | 6.10561 | 1413 ft | 3 kts | 97° |
| 2026-02-21 03:59 | 46.23081 | 6.10535 | 1412 ft | 2 kts | 55° |
| 2026-02-21 03:59 | 46.23075 | 6.10524 | 1410 ft | 0 kts | 46° |
| 2026-02-21 03:59 | 46.23074 | 6.10523 | 1409 ft | 0 kts | 46° |
| 2026-02-21 04:04 | 46.23075 | 6.10523 | 1405 ft | 1 kts | 46° |
| 2026-02-21 04:04 | 46.23094 | 6.10552 | 1409 ft | 6 kts | 45° |
| 2026-02-21 04:04 | 46.23117 | 6.10587 | 1409 ft | 9 kts | 45° |
| 2026-02-21 04:04 | 46.23176 | 6.10651 | 1407 ft | 12 kts | 2° |
| 2026-02-21 04:05 | 46.23233 | 6.10595 | 1403 ft | 10 kts | 318° |
| 2026-02-21 04:05 | 46.23284 | 6.10522 | 1411 ft | 11 kts | 314° |
| 2026-02-21 04:05 | 46.23332 | 6.10542 | 1413 ft | 9 kts | 44° |
| 2026-02-21 04:05 | 46.23387 | 6.10618 | 1404 ft | 13 kts | 43° |
| 2026-02-21 04:06 | 46.23468 | 6.10729 | 1403 ft | 19 kts | 45° |
| 2026-02-21 04:06 | 46.23568 | 6.10880 | 1398 ft | 22 kts | 45° |
| 2026-02-21 04:06 | 46.23685 | 6.11050 | 1399 ft | 25 kts | 45° |
| 2026-02-21 04:06 | 46.23809 | 6.11232 | 1396 ft | 26 kts | 46° |
| 2026-02-21 04:07 | 46.23942 | 6.11427 | 1405 ft | 28 kts | 45° |
| 2026-02-21 04:07 | 46.24088 | 6.11643 | 1386 ft | 31 kts | 44° |
| 2026-02-21 04:07 | 46.24246 | 6.11873 | 1384 ft | 32 kts | 45° |
| 2026-02-21 04:07 | 46.24406 | 6.12108 | 1379 ft | 32 kts | 46° |
| 2026-02-21 04:08 | 46.24566 | 6.12346 | 1379 ft | 34 kts | 46° |
| 2026-02-21 04:08 | 46.24720 | 6.12567 | 1375 ft | 25 kts | 44° |
| 2026-02-21 04:08 | 46.24812 | 6.12678 | 1370 ft | 9 kts | 26° |
| 2026-02-21 04:08 | 46.24841 | 6.12687 | 1372 ft | 0 kts | 12° |
| 2026-02-21 04:09 | 46.24859 | 6.12693 | 1370 ft | 5 kts | 14° |
| 2026-02-21 04:10 | 46.24910 | 6.12714 | 1371 ft | 9 kts | 16° |
| 2026-02-21 04:10 | 46.24974 | 6.12708 | 1370 ft | 10 kts | 331° |
| 2026-02-21 04:10 | 46.24986 | 6.12625 | 1372 ft | 9 kts | 231° |
| 2026-02-21 04:10 | 46.24977 | 6.12611 | 1371 ft | 0 kts | 225° |
| 2026-02-21 04:11 | 46.24950 | 6.12570 | 1372 ft | 26 kts | 226° |
| 2026-02-21 04:12 | 46.24652 | 6.12136 | 1383 ft | 93 kts | 225° |
| 2026-02-21 04:12 | 46.24071 | 6.11287 | 1400 ft | 142 kts | 225° |
| 2026-02-21 04:12 | 46.23336 | 6.10207 | 1678 ft | 160 kts | 225° |
| 2026-02-21 04:12 | 46.22554 | 6.09033 | 2229 ft | 163 kts | 226° |
| 2026-02-21 04:13 | 46.21770 | 6.07856 | 2991 ft | 159 kts | 226° |
| 2026-02-21 04:13 | 46.20987 | 6.06740 | 3552 ft | 166 kts | 224° |
| 2026-02-21 04:13 | 46.20085 | 6.05504 | 3880 ft | 186 kts | 224° |
| 2026-02-21 04:13 | 46.19097 | 6.04103 | 4208 ft | 211 kts | 226° |
| 2026-02-21 04:14 | 46.18046 | 6.02551 | 4736 ft | 234 kts | 227° |
| 2026-02-21 04:14 | 46.16863 | 6.00765 | 5358 ft | 257 kts | 228° |
| 2026-02-21 04:14 | 46.15629 | 5.98895 | 6275 ft | 265 kts | 229° |
| 2026-02-21 04:14 | 46.14337 | 5.96977 | 7276 ft | 272 kts | 229° |
| 2026-02-21 04:15 | 46.13006 | 5.95017 | 8261 ft | 277 kts | 230° |
| 2026-02-21 04:15 | 46.11637 | 5.92999 | 9235 ft | 284 kts | 230° |
| 2026-02-21 04:15 | 46.10239 | 5.90938 | 10268 ft | 290 kts | 231° |
| 2026-02-21 04:15 | 46.08803 | 5.88813 | 11017 ft | 305 kts | 231° |
| 2026-02-21 04:16 | 46.07263 | 5.86522 | 11436 ft | 329 kts | 231° |
| 2026-02-21 04:16 | 46.05647 | 5.84120 | 11924 ft | 347 kts | 231° |
| 2026-02-21 04:16 | 46.03950 | 5.81615 | 12773 ft | 352 kts | 232° |
| 2026-02-21 04:16 | 46.02523 | 5.78838 | 13602 ft | 347 kts | 249° |
| 2026-02-21 04:17 | 46.01777 | 5.75613 | 14471 ft | 336 kts | 269° |
| 2026-02-21 04:17 | 46.01867 | 5.72342 | 15263 ft | 326 kts | 289° |
| 2026-02-21 04:17 | 46.02747 | 5.69355 | 16073 ft | 320 kts | 307° |
| 2026-02-21 04:17 | 46.04263 | 5.67036 | 16879 ft | 319 kts | 324° |
| 2026-02-21 04:18 | 46.05499 | 5.65987 | 17381 ft | 321 kts | 336° |
| 2026-02-21 04:18 | 46.13124 | 5.64686 | 19907 ft | 334 kts | 353° |
| 2026-02-21 04:19 | 46.15455 | 5.64464 | 20679 ft | 336 kts | 353° |
| 2026-02-21 04:19 | 46.17795 | 5.64236 | 21396 ft | 338 kts | 353° |
| 2026-02-21 04:19 | 46.20118 | 5.64005 | 22131 ft | 339 kts | 353° |
| 2026-02-21 04:19 | 46.22486 | 5.63768 | 22869 ft | 341 kts | 353° |
| 2026-02-21 04:20 | 46.24865 | 5.63530 | 23611 ft | 343 kts | 353° |
| 2026-02-21 04:20 | 46.27255 | 5.63291 | 24264 ft | 345 kts | 353° |
| 2026-02-21 04:20 | 46.29658 | 5.63051 | 24871 ft | 347 kts | 353° |
| 2026-02-21 04:20 | 46.32046 | 5.62813 | 25451 ft | 347 kts | 353° |
| 2026-02-21 04:21 | 46.34367 | 5.62581 | 26035 ft | 349 kts | 353° |
| 2026-02-21 04:21 | 46.36818 | 5.62336 | 26623 ft | 349 kts | 353° |
| 2026-02-21 04:21 | 46.39247 | 5.62094 | 27097 ft | 352 kts | 353° |
| 2026-02-21 04:21 | 46.41694 | 5.61849 | 27661 ft | 353 kts | 353° |
| 2026-02-21 04:22 | 46.44149 | 5.61603 | 28226 ft | 353 kts | 353° |
| 2026-02-21 04:22 | 46.46607 | 5.61356 | 28768 ft | 354 kts | 353° |
| 2026-02-21 04:22 | 46.49039 | 5.61112 | 29250 ft | 356 kts | 353° |
| 2026-02-21 04:22 | 46.51548 | 5.60860 | 29749 ft | 357 kts | 353° |
| 2026-02-21 04:23 | 46.54022 | 5.60612 | 30234 ft | 358 kts | 353° |
| 2026-02-21 04:23 | 46.56477 | 5.60364 | 30660 ft | 359 kts | 353° |
| 2026-02-21 04:23 | 46.58999 | 5.60110 | 31008 ft | 362 kts | 353° |
| 2026-02-21 04:23 | 46.61517 | 5.59894 | 31367 ft | 365 kts | 356° |
| 2026-02-21 04:24 | 46.64071 | 5.60202 | 31788 ft | 371 kts | 4° |
| 2026-02-21 04:24 | 46.66581 | 5.61182 | 32294 ft | 378 kts | 13° |
| 2026-02-21 04:24 | 46.68975 | 5.62823 | 32756 ft | 386 kts | 21° |
| 2026-02-21 04:24 | 46.71199 | 5.65150 | 33261 ft | 397 kts | 31° |
| 2026-02-21 04:25 | 46.73227 | 5.67919 | 33714 ft | 399 kts | 32° |
| 2026-02-21 04:25 | 46.75238 | 5.70684 | 34176 ft | 398 kts | 32° |
| 2026-02-21 04:25 | 46.77243 | 5.73437 | 34571 ft | 397 kts | 32° |
| 2026-02-21 04:25 | 46.79260 | 5.76201 | 34863 ft | 398 kts | 32° |
| 2026-02-21 04:26 | 46.81287 | 5.78981 | 35137 ft | 399 kts | 33° |
| 2026-02-21 04:26 | 46.83283 | 5.81723 | 35412 ft | 400 kts | 33° |
| 2026-02-21 04:26 | 46.85310 | 5.84513 | 35685 ft | 401 kts | 33° |
| 2026-02-21 04:26 | 46.87320 | 5.87282 | 35949 ft | 402 kts | 33° |
| 2026-02-21 04:27 | 46.89359 | 5.90094 | 36206 ft | 403 kts | 33° |
| 2026-02-21 04:27 | 46.91403 | 5.92916 | 36470 ft | 404 kts | 34° |
| 2026-02-21 04:27 | 46.93459 | 5.95757 | 36716 ft | 405 kts | 34° |
| 2026-02-21 04:27 | 46.95572 | 5.98437 | 36959 ft | 398 kts | 27° |
| 2026-02-21 04:28 | 46.97889 | 6.00482 | 37154 ft | 389 kts | 18° |
| 2026-02-21 04:28 | 47.00393 | 6.01883 | 37392 ft | 382 kts | 9° |
| 2026-02-21 04:28 | 47.02907 | 6.02607 | 37584 ft | 377 kts | 1° |
| 2026-02-21 04:28 | 47.05494 | 6.02751 | 37795 ft | 376 kts | 356° |
| 2026-02-21 04:29 | 47.08145 | 6.02782 | 38009 ft | 377 kts | 357° |
| 2026-02-21 04:29 | 47.10732 | 6.02829 | 38190 ft | 378 kts | 357° |
| 2026-02-21 04:29 | 47.13289 | 6.02877 | 38345 ft | 379 kts | 357° |
| 2026-02-21 04:30 | 47.18569 | 6.02974 | 38328 ft | 377 kts | 357° |
| 2026-02-21 04:30 | 47.23804 | 6.03064 | 38332 ft | 378 kts | 357° |
| 2026-02-21 04:31 | 47.29078 | 6.03155 | 38322 ft | 377 kts | 357° |
| 2026-02-21 04:31 | 47.34297 | 6.03245 | 38326 ft | 377 kts | 357° |
| 2026-02-21 04:32 | 47.39545 | 6.03367 | 38320 ft | 377 kts | 357° |
| 2026-02-21 04:32 | 47.44811 | 6.03521 | 38313 ft | 377 kts | 357° |
| 2026-02-21 04:33 | 47.50029 | 6.03667 | 38315 ft | 377 kts | 357° |
| 2026-02-21 04:33 | 47.55279 | 6.03812 | 38313 ft | 377 kts | 357° |
| 2026-02-21 04:34 | 47.60528 | 6.03958 | 38312 ft | 377 kts | 357° |
| 2026-02-21 04:34 | 47.65767 | 6.04102 | 38309 ft | 377 kts | 357° |
| 2026-02-21 04:35 | 47.71011 | 6.04247 | 38309 ft | 377 kts | 357° |
| 2026-02-21 04:35 | 47.76257 | 6.04392 | 38300 ft | 376 kts | 357° |
| 2026-02-21 04:36 | 47.81499 | 6.04538 | 38227 ft | 377 kts | 357° |
| 2026-02-21 04:36 | 47.84085 | 6.04610 | 38040 ft | 374 kts | 357° |
| 2026-02-21 04:36 | 47.86614 | 6.04681 | 38124 ft | 372 kts | 357° |
| 2026-02-21 04:37 | 47.91795 | 6.04824 | 38142 ft | 375 kts | 357° |
| 2026-02-21 04:37 | 47.94406 | 6.04896 | 38260 ft | 376 kts | 357° |
| 2026-02-21 04:37 | 47.97027 | 6.04969 | 38291 ft | 377 kts | 357° |
| 2026-02-21 04:37 | 47.99647 | 6.05042 | 38114 ft | 376 kts | 357° |
| 2026-02-21 04:38 | 48.02249 | 6.05116 | 38056 ft | 373 kts | 357° |
| 2026-02-21 04:38 | 48.07303 | 6.05257 | 38077 ft | 375 kts | 357° |
| 2026-02-21 04:38 | 48.09876 | 6.05329 | 38189 ft | 375 kts | 357° |
| 2026-02-21 04:39 | 48.12515 | 6.05403 | 38309 ft | 376 kts | 357° |
| 2026-02-21 04:39 | 48.15093 | 6.05475 | 38476 ft | 376 kts | 356° |
| 2026-02-21 04:39 | 48.17663 | 6.05560 | 39017 ft | 367 kts | 357° |
| 2026-02-21 04:39 | 48.20239 | 6.05655 | 39257 ft | 367 kts | 356° |
| 2026-02-21 04:40 | 48.22772 | 6.05718 | 39295 ft | 371 kts | 356° |
| 2026-02-21 04:40 | 48.27979 | 6.05839 | 39296 ft | 380 kts | 356° |
| 2026-02-21 04:41 | 48.32429 | 6.05960 | 39295 ft | 381 kts | 356° |
| 2026-02-21 04:41 | 48.38461 | 6.06242 | 39291 ft | 371 kts | 357° |
| 2026-02-21 04:42 | 48.43581 | 6.06500 | 39293 ft | 369 kts | 356° |
| 2026-02-21 04:42 | 48.48708 | 6.06741 | 39281 ft | 370 kts | 356° |
| 2026-02-21 04:43 | 48.53854 | 6.06985 | 39265 ft | 370 kts | 356° |
| 2026-02-21 04:43 | 48.58992 | 6.07228 | 39268 ft | 370 kts | 356° |
| 2026-02-21 04:44 | 48.64144 | 6.07472 | 39262 ft | 369 kts | 356° |
| 2026-02-21 04:44 | 48.69106 | 6.07709 | 39259 ft | 369 kts | 356° |
| 2026-02-21 04:45 | 48.74211 | 6.07952 | 39266 ft | 369 kts | 356° |
| 2026-02-21 04:45 | 48.79343 | 6.08197 | 39264 ft | 369 kts | 356° |
| 2026-02-21 04:46 | 48.84419 | 6.08439 | 39233 ft | 369 kts | 356° |
| 2026-02-21 04:46 | 48.89533 | 6.08685 | 39231 ft | 369 kts | 356° |
| 2026-02-21 04:47 | 48.96331 | 6.09011 | 39231 ft | 369 kts | 356° |
| 2026-02-21 04:47 | 49.01517 | 6.09260 | 39191 ft | 370 kts | 356° |
| 2026-02-21 04:48 | 49.06711 | 6.09508 | 39235 ft | 378 kts | 356° |
| 2026-02-21 04:48 | 49.12013 | 6.09763 | 39228 ft | 381 kts | 356° |
| 2026-02-21 04:49 | 49.17302 | 6.10023 | 39222 ft | 380 kts | 356° |
| 2026-02-21 04:49 | 49.22558 | 6.10280 | 39211 ft | 380 kts | 355° |
| 2026-02-21 04:50 | 49.27843 | 6.10537 | 39202 ft | 380 kts | 355° |
| 2026-02-21 04:50 | 49.33134 | 6.10795 | 39178 ft | 380 kts | 355° |
| 2026-02-21 04:51 | 49.38361 | 6.11050 | 39172 ft | 379 kts | 355° |
| 2026-02-21 04:51 | 49.43600 | 6.11041 | 39162 ft | 374 kts | 348° |
| 2026-02-21 04:52 | 49.48611 | 6.09238 | 39160 ft | 367 kts | 336° |
| 2026-02-21 04:52 | 49.53111 | 6.05654 | 39160 ft | 364 kts | 324° |
| 2026-02-21 04:53 | 49.57205 | 6.01261 | 39164 ft | 364 kts | 324° |
| 2026-02-21 04:53 | 49.61369 | 5.96826 | 39168 ft | 364 kts | 324° |
| 2026-02-21 04:54 | 49.65517 | 5.92379 | 39164 ft | 363 kts | 324° |
| 2026-02-21 04:54 | 49.69633 | 5.87950 | 39160 ft | 360 kts | 324° |
| 2026-02-21 04:55 | 49.73756 | 5.83502 | 39160 ft | 360 kts | 324° |
| 2026-02-21 04:55 | 49.77855 | 5.79071 | 39164 ft | 359 kts | 323° |
| 2026-02-21 04:56 | 49.81914 | 5.74675 | 39165 ft | 358 kts | 323° |
| 2026-02-21 04:56 | 49.85990 | 5.70249 | 39161 ft | 357 kts | 323° |
| 2026-02-21 04:57 | 49.90060 | 5.65822 | 39166 ft | 356 kts | 323° |
| 2026-02-21 04:57 | 49.94087 | 5.61433 | 39163 ft | 356 kts | 323° |
| 2026-02-21 04:58 | 49.98137 | 5.57009 | 39164 ft | 355 kts | 323° |
| 2026-02-21 04:58 | 50.02182 | 5.52581 | 39155 ft | 355 kts | 323° |
| 2026-02-21 04:59 | 50.06195 | 5.48179 | 39153 ft | 355 kts | 323° |
| 2026-02-21 04:59 | 50.10230 | 5.43743 | 39150 ft | 355 kts | 323° |
| 2026-02-21 05:00 | 50.14260 | 5.39305 | 39144 ft | 355 kts | 323° |
| 2026-02-21 05:00 | 50.18298 | 5.34847 | 39140 ft | 355 kts | 323° |
| 2026-02-21 05:01 | 50.22171 | 5.30562 | 39152 ft | 356 kts | 323° |
| 2026-02-21 05:01 | 50.26242 | 5.26049 | 39151 ft | 358 kts | 322° |
| 2026-02-21 05:02 | 50.30315 | 5.21526 | 39146 ft | 359 kts | 322° |
| 2026-02-21 05:02 | 50.34389 | 5.16991 | 39148 ft | 360 kts | 322° |
| 2026-02-21 05:03 | 50.38475 | 5.12433 | 39149 ft | 360 kts | 322° |
| 2026-02-21 05:03 | 50.42560 | 5.07865 | 39147 ft | 361 kts | 322° |
| 2026-02-21 05:04 | 50.46638 | 5.03296 | 39148 ft | 362 kts | 322° |
| 2026-02-21 05:04 | 50.50734 | 4.98696 | 39141 ft | 363 kts | 322° |
| 2026-02-21 05:05 | 50.54846 | 4.94070 | 39142 ft | 364 kts | 322° |
| 2026-02-21 05:05 | 50.58972 | 4.89416 | 39139 ft | 365 kts | 322° |
| 2026-02-21 05:06 | 50.63089 | 4.84763 | 39136 ft | 365 kts | 322° |
| 2026-02-21 05:06 | 50.67212 | 4.80092 | 39136 ft | 366 kts | 322° |
| 2026-02-21 05:07 | 50.71332 | 4.75414 | 39137 ft | 366 kts | 322° |
| 2026-02-21 05:07 | 50.75450 | 4.70728 | 39140 ft | 367 kts | 322° |
| 2026-02-21 05:08 | 50.79594 | 4.66002 | 39140 ft | 367 kts | 322° |
| 2026-02-21 05:08 | 50.83742 | 4.61262 | 38987 ft | 368 kts | 322° |
| 2026-02-21 05:09 | 50.85819 | 4.58885 | 38434 ft | 369 kts | 322° |
| 2026-02-21 05:09 | 50.87842 | 4.56414 | 37498 ft | 373 kts | 318° |
| 2026-02-21 05:09 | 50.89722 | 4.53544 | 36726 ft | 373 kts | 313° |
| 2026-02-21 05:09 | 50.91386 | 4.50414 | 36167 ft | 369 kts | 308° |
| 2026-02-21 05:10 | 50.92812 | 4.47107 | 35510 ft | 369 kts | 304° |
| 2026-02-21 05:10 | 50.94142 | 4.43639 | 34756 ft | 370 kts | 304° |
| 2026-02-21 05:10 | 50.95474 | 4.40202 | 34072 ft | 368 kts | 305° |
| 2026-02-21 05:10 | 50.96817 | 4.36741 | 33359 ft | 366 kts | 305° |
| 2026-02-21 05:11 | 50.98138 | 4.33322 | 32656 ft | 364 kts | 305° |
| 2026-02-21 05:11 | 50.99463 | 4.29886 | 31932 ft | 363 kts | 305° |
| 2026-02-21 05:11 | 51.00777 | 4.26467 | 31283 ft | 361 kts | 305° |
| 2026-02-21 05:11 | 51.02071 | 4.23090 | 30816 ft | 355 kts | 305° |
| 2026-02-21 05:12 | 51.03349 | 4.19751 | 30306 ft | 352 kts | 305° |
| 2026-02-21 05:12 | 51.04666 | 4.16323 | 29716 ft | 374 kts | 305° |
| 2026-02-21 05:12 | 51.06039 | 4.12742 | 29182 ft | 381 kts | 305° |
| 2026-02-21 05:12 | 51.07413 | 4.09141 | 28614 ft | 380 kts | 305° |
| 2026-02-21 05:13 | 51.08903 | 4.05766 | 28079 ft | 372 kts | 311° |
| 2026-02-21 05:13 | 51.10607 | 4.02736 | 27546 ft | 364 kts | 317° |
| 2026-02-21 05:13 | 51.12457 | 4.00104 | 27025 ft | 356 kts | 322° |
| 2026-02-21 05:13 | 51.14428 | 3.97766 | 26510 ft | 350 kts | 324° |
| 2026-02-21 05:14 | 51.16379 | 3.95468 | 26002 ft | 344 kts | 323° |
| 2026-02-21 05:14 | 51.18282 | 3.93210 | 25501 ft | 339 kts | 323° |
| 2026-02-21 05:14 | 51.20157 | 3.90981 | 24997 ft | 333 kts | 323° |
| 2026-02-21 05:14 | 51.22032 | 3.88917 | 24527 ft | 320 kts | 330° |
| 2026-02-21 05:15 | 51.24042 | 3.87559 | 24068 ft | 315 kts | 340° |
| 2026-02-21 05:15 | 51.26194 | 3.86928 | 23645 ft | 315 kts | 351° |
| 2026-02-21 05:15 | 51.28367 | 3.86868 | 23210 ft | 311 kts | 354° |
| 2026-02-21 05:15 | 51.30538 | 3.86827 | 22800 ft | 311 kts | 354° |
| 2026-02-21 05:16 | 51.32700 | 3.86770 | 22394 ft | 311 kts | 354° |
| 2026-02-21 05:16 | 51.34852 | 3.86715 | 21984 ft | 309 kts | 354° |
| 2026-02-21 05:16 | 51.36989 | 3.86661 | 21582 ft | 307 kts | 354° |
| 2026-02-21 05:16 | 51.39118 | 3.86609 | 21186 ft | 307 kts | 354° |
| 2026-02-21 05:17 | 51.41207 | 3.86558 | 20782 ft | 305 kts | 354° |
| 2026-02-21 05:17 | 51.43325 | 3.86509 | 20383 ft | 303 kts | 354° |
| 2026-02-21 05:17 | 51.45432 | 3.86459 | 19980 ft | 303 kts | 354° |
| 2026-02-21 05:17 | 51.47532 | 3.86409 | 19587 ft | 301 kts | 354° |
| 2026-02-21 05:18 | 51.49633 | 3.86360 | 19189 ft | 300 kts | 354° |
| 2026-02-21 05:18 | 51.51711 | 3.86311 | 18800 ft | 299 kts | 354° |
| 2026-02-21 05:18 | 51.53792 | 3.86262 | 18396 ft | 298 kts | 354° |
| 2026-02-21 05:18 | 51.55864 | 3.86212 | 17983 ft | 297 kts | 354° |
| 2026-02-21 05:19 | 51.57904 | 3.86163 | 17596 ft | 299 kts | 354° |
| 2026-02-21 05:19 | 51.59980 | 3.86114 | 17205 ft | 298 kts | 354° |
| 2026-02-21 05:19 | 51.62064 | 3.86064 | 16807 ft | 299 kts | 354° |